Geneseo, IL (61254)

4:16 AM CDT on September 02, 2014 (GMT -0500)
In Town | Change Station
CLOSE
Current Station
Personal Weather Station
Location: Geneseo, IL
Elevation: 645 ft
Nearby Weather Stations
Active Advisory: Special Statement

Elev 645 ft 41.44 °N, 90.15 °W | Updated 4 minutes ago

Partly Cloudy
Partly Cloudy
67.6 °F
Feels Like 67.6 °F
N
0.0
Wind Variable Wind from WNW
Gusts 0.0 mph

Today
High -- | Low -- °F
--% Chance of Precip.
Yesterday
High -- | Low -- °F
Precip. -- in
6:27 AM 7:31 PM
Waxing Crescent, 49% visible
Pressure 29.87 in
Visibility 6.0 miles
Clouds Clear
Dew Point 65 °F
Humidity 91%
Rainfall 0.00 in
Snow Depth Not available.
UV 0 out of 12
Pollen 5.60 out of 12
Air Quality Not available.
Flu Activity Not available.
METAR KMLI 020852Z AUTO 00000KT 6SM BR CLR 18/18 A2988 RMK AO2 SLP114 T01830178 50005 $

More Conditions Fewer Conditions

Pressure 29.87 in
Visibility 6.0 miles
Clouds Clear
Dew Point 65 °F
Humidity 91%
Rainfall 0.00 in
Snow Depth Not available.
UV 0 out of 12
Pollen 5.60 out of 12
Air Quality Not available.
Flu Activity Not available.
METAR KMLI 020852Z AUTO 00000KT 6SM BR CLR 18/18 A2988 RMK AO2 SLP114 T01830178 50005 $

More Conditions Fewer Conditions

10-Day Weather Forecast

Almanac

Astronomy

Sep. 02, 2014 Rise Set
Actual Time 6:27 AM CDT 7:31 PM CDT
Civil Twilight 5:59 AM CDT 8:00 PM CDT
Nautical Twilight 5:25 AM CDT 8:34 PM CDT
Astronomical Twilight 4:50 AM CDT 9:09 PM CDT
Moon 2:17 PM CDT No Moon Set
Length of Visible Light 14h 00m
Length of Day
13h 04m
Tomorrow will be 2m 40s shorter.
Waxing Crescent, 49% of the Moon is Illuminated
Today
Waxing Crescent
Sep 2
First Quarter
Sep 8
Full
Sep 15
Last Quarter
Sep 24
New

Today's Extremes

State Highs State Lows

Community

WunderPhotos

Upload Photos

1,749,587 photos uploaded!

WunderBlogs® & News

Nearby

Snow Depth

Station Depth Elevation
No new snow has been reported.

Earthquake Activity

City Distance Mag. Time & Date
No recent earthquake activity has been reported nearby.
Minimum magnitude displayed is 2.5.

Coastal Water Temperatures

Place Temperature
No Stations Reporting

Nearby Weather Stations